createdAt,value
2022-11-17T00:03:25.423Z,73.94
2022-11-17T00:08:26.432Z,74.05
2022-11-17T00:13:46.899Z,73.82
2022-11-17T00:19:07.018Z,73.69
2022-11-17T00:24:08.382Z,73.34
2022-11-17T00:29:09.709Z,73.47
2022-11-17T00:34:12.268Z,73.48
2022-11-17T00:39:15.573Z,73.57
2022-11-17T00:44:17.012Z,73.53
2022-11-17T00:49:20.864Z,73.32
2022-11-17T00:54:22.448Z,73.13
2022-11-17T00:59:23.610Z,73.00
2022-11-17T01:04:24.618Z,72.99
2022-11-17T01:09:25.993Z,73.01
2022-11-17T01:14:29.499Z,72.76
2022-11-17T01:19:30.643Z,72.68
2022-11-17T01:24:31.625Z,72.48
2022-11-17T01:29:32.875Z,72.63
2022-11-17T01:34:33.999Z,72.83
2022-11-17T01:39:35.063Z,72.90
2022-11-17T01:45:03.010Z,73.09
2022-11-17T01:50:41.797Z,73.27
2022-11-17T01:55:55.383Z,73.27
2022-11-17T02:00:57.091Z,73.44
2022-11-17T02:06:07.856Z,73.57
2022-11-17T02:11:13.503Z,73.64
2022-11-17T02:16:16.217Z,73.68
2022-11-17T02:21:39.235Z,73.79
2022-11-17T02:27:18.123Z,73.71
2022-11-17T02:32:29.863Z,73.89
2022-11-17T02:38:15.769Z,73.96
2022-11-17T02:43:39.429Z,73.93
2022-11-17T02:48:54.864Z,74.15
2022-11-17T02:53:59.425Z,74.43
2022-11-17T02:59:04.648Z,74.51
2022-11-17T03:04:39.352Z,74.37
2022-11-17T03:09:43.195Z,74.26
2022-11-17T03:14:53.586Z,74.15
2022-11-17T03:20:14.074Z,74.21
2022-11-17T03:25:20.469Z,74.12
2022-11-17T03:30:24.305Z,74.31
2022-11-17T03:35:30.469Z,74.40
2022-11-17T03:40:34.008Z,73.84
2022-11-17T03:45:38.578Z,73.53
2022-11-17T03:51:10.393Z,73.22
2022-11-17T03:56:41.887Z,73.00
2022-11-17T04:01:43.532Z,72.81
2022-11-17T04:06:45.573Z,72.50
2022-11-17T04:12:05.327Z,72.48
2022-11-17T04:17:06.441Z,72.40
2022-11-17T04:22:07.682Z,72.33
2022-11-17T04:27:27.280Z,72.11
2022-11-17T04:32:28.671Z,71.87
2022-11-17T04:37:29.733Z,71.65
2022-11-17T04:42:30.715Z,71.21
2022-11-17T04:47:31.856Z,70.47
2022-11-17T04:52:32.892Z,70.47
2022-11-17T04:57:34.055Z,70.95
2022-11-17T05:02:35.716Z,71.57
2022-11-17T05:07:37.007Z,72.03
2022-11-17T05:12:57.385Z,72.25
2022-11-17T05:17:58.527Z,72.43
2022-11-17T05:23:18.272Z,72.74
2022-11-17T05:28:19.380Z,72.82
2022-11-17T05:33:20.680Z,72.88
2022-11-17T05:38:21.796Z,73.11
2022-11-17T05:43:22.881Z,73.34
2022-11-17T05:48:24.464Z,73.43
2022-11-17T05:53:27.197Z,73.51
2022-11-17T05:58:32.909Z,73.54
2022-11-17T06:03:47.000Z,73.55
2022-11-17T06:08:49.768Z,73.67
2022-11-17T06:13:51.249Z,73.61
2022-11-17T06:19:03.089Z,73.43
2022-11-17T06:24:07.685Z,73.51
2022-11-17T06:29:11.518Z,73.14
2022-11-17T06:34:12.927Z,73.08
2022-11-17T06:39:14.023Z,72.79
2022-11-17T06:44:18.220Z,72.29
2022-11-17T06:49:20.924Z,72.22
2022-11-17T06:54:22.808Z,72.65
2022-11-17T06:59:23.954Z,72.73
2022-11-17T07:04:25.078Z,72.52
2022-11-17T07:09:26.173Z,72.46
2022-11-17T07:14:27.642Z,72.67
2022-11-17T07:19:28.700Z,72.55
2022-11-17T07:24:29.993Z,72.21
2022-11-17T07:29:34.261Z,72.24
2022-11-17T07:34:35.755Z,72.36
2022-11-17T07:39:36.783Z,72.58
2022-11-17T07:44:37.961Z,72.13
2022-11-17T07:49:38.963Z,71.75
2022-11-17T07:54:40.526Z,71.78
2022-11-17T07:59:41.611Z,71.06
2022-11-17T08:04:42.581Z,70.81
2022-11-17T08:09:43.697Z,70.95
2022-11-17T08:14:44.798Z,70.64
2022-11-17T08:19:45.998Z,70.52
2022-11-17T08:24:47.203Z,70.34
2022-11-17T08:29:48.240Z,70.03
2022-11-17T08:34:49.684Z,69.80
2022-11-17T08:39:50.749Z,69.72
2022-11-17T08:44:51.854Z,69.17
2022-11-17T08:49:53.200Z,69.00
2022-11-17T08:54:55.558Z,67.58
2022-11-17T08:59:57.246Z,66.52
2022-11-17T09:04:58.383Z,66.09
2022-11-17T09:09:59.766Z,66.00
2022-11-17T09:15:00.860Z,65.92
2022-11-17T09:20:02.013Z,64.92
2022-11-17T09:25:06.457Z,64.89
2022-11-17T09:30:11.275Z,64.40
2022-11-17T09:35:13.421Z,64.32
2022-11-17T09:40:18.902Z,64.51
2022-11-17T09:45:24.253Z,63.93
2022-11-17T09:50:45.336Z,64.11
2022-11-17T09:55:50.688Z,64.24
2022-11-17T10:00:53.161Z,64.42
2022-11-17T10:05:55.472Z,64.29
2022-11-17T10:10:56.613Z,64.38
2022-11-17T10:16:00.369Z,63.97
2022-11-17T10:21:04.570Z,63.10
2022-11-17T10:26:12.280Z,62.37
2022-11-17T10:31:18.735Z,62.93
2022-11-17T10:36:19.845Z,62.68
2022-11-17T10:41:39.729Z,61.63
2022-11-17T10:47:04.272Z,61.39
2022-11-17T10:52:08.430Z,61.29
2022-11-17T10:57:28.515Z,60.80
2022-11-17T11:02:34.239Z,60.86
2022-11-17T11:07:35.967Z,61.15
2022-11-17T11:13:02.317Z,61.51
2022-11-17T11:18:22.491Z,61.86
2022-11-17T11:23:35.145Z,61.51
2022-11-17T11:28:46.980Z,59.84
2022-11-17T11:34:00.104Z,59.63
2022-11-17T11:39:39.530Z,59.98
2022-11-17T11:44:51.687Z,59.11
2022-11-17T11:50:12.232Z,58.82
2022-11-17T11:55:21.375Z,58.22
2022-11-17T12:00:22.629Z,58.03
2022-11-17T12:05:27.669Z,57.88
2022-11-17T12:10:37.100Z,56.86
2022-11-17T12:15:38.215Z,56.89
2022-11-17T12:20:42.589Z,56.76
2022-11-17T12:25:53.892Z,55.97
2022-11-17T12:31:08.305Z,55.67
2022-11-17T12:36:31.155Z,55.90
2022-11-17T12:41:54.640Z,55.92
2022-11-17T12:47:19.996Z,56.35
2022-11-17T12:52:59.950Z,57.11
2022-11-17T12:58:39.151Z,57.60
2022-11-17T13:04:05.766Z,58.29
2022-11-17T13:09:11.371Z,59.11
2022-11-17T13:14:15.189Z,59.60
2022-11-17T13:19:37.405Z,59.39
2022-11-17T13:24:41.860Z,59.81
2022-11-17T13:29:43.342Z,59.54
2022-11-17T13:34:52.479Z,59.40
2022-11-17T13:39:59.966Z,59.87
2022-11-17T13:45:04.109Z,60.30
2022-11-17T13:50:28.721Z,59.78
2022-11-17T13:55:30.759Z,58.99
2022-11-17T14:00:32.928Z,59.45
2022-11-17T14:05:34.293Z,60.17
2022-11-17T14:10:37.907Z,60.69
2022-11-17T14:15:45.789Z,61.25
2022-11-17T14:20:48.122Z,61.85
2022-11-17T14:25:50.540Z,62.48
2022-11-17T14:30:56.714Z,63.11
2022-11-17T14:35:59.395Z,63.73
2022-11-17T14:41:00.932Z,64.21
2022-11-17T14:46:02.731Z,64.74
2022-11-17T14:51:03.868Z,65.45
2022-11-17T14:56:05.839Z,66.01
2022-11-17T15:01:18.335Z,66.41
2022-11-17T15:06:20.497Z,66.91
2022-11-17T15:11:22.786Z,67.25
2022-11-17T15:16:23.947Z,67.63
2022-11-17T15:21:25.341Z,68.12
2022-11-17T15:26:26.827Z,68.74
2022-11-17T15:31:28.341Z,69.18
2022-11-17T15:36:31.174Z,69.41
2022-11-17T15:41:33.130Z,69.63
2022-11-17T15:46:35.256Z,69.83
2022-11-17T15:51:36.651Z,70.13
2022-11-17T15:56:37.779Z,70.46
2022-11-17T16:01:39.799Z,70.75
2022-11-17T16:06:44.191Z,71.14
2022-11-17T16:11:45.707Z,71.62
2022-11-17T16:16:47.266Z,71.96
2022-11-17T16:21:49.346Z,72.29
2022-11-17T16:26:50.525Z,72.94
2022-11-17T16:31:52.267Z,73.33
2022-11-17T16:36:53.833Z,73.44
2022-11-17T16:41:55.072Z,73.90
2022-11-17T16:46:56.871Z,74.35
2022-11-17T16:51:59.120Z,74.62
2022-11-17T16:57:00.277Z,74.70
2022-11-17T17:02:02.522Z,74.89
2022-11-17T17:07:04.115Z,75.13
2022-11-17T17:12:06.722Z,75.36
2022-11-17T17:17:08.018Z,75.53
2022-11-17T17:22:09.177Z,75.76
2022-11-17T17:27:10.281Z,76.05
2022-11-17T17:32:12.487Z,76.30
2022-11-17T17:37:13.689Z,76.37
2022-11-17T17:42:15.492Z,76.85
2022-11-17T17:47:17.821Z,76.99
2022-11-17T17:52:20.013Z,77.09
2022-11-17T17:57:21.353Z,77.16
2022-11-17T18:02:22.333Z,77.41
2022-11-17T18:07:23.563Z,77.70
2022-11-17T18:12:24.873Z,77.78
2022-11-17T18:17:25.979Z,77.93
2022-11-17T18:22:26.951Z,78.18
2022-11-17T18:27:29.484Z,78.52
2022-11-17T18:32:30.603Z,78.67
2022-11-17T18:37:32.263Z,78.96
2022-11-17T18:42:33.373Z,79.12
2022-11-17T18:47:35.755Z,79.22
2022-11-17T18:52:36.855Z,79.43
2022-11-17T18:57:42.061Z,79.47
2022-11-17T19:02:45.895Z,79.62
2022-11-17T19:07:47.751Z,79.64
2022-11-17T19:12:50.121Z,79.95
2022-11-17T19:17:51.244Z,80.12
2022-11-17T19:22:54.449Z,80.58
2022-11-17T19:27:56.002Z,80.76
2022-11-17T19:32:57.632Z,80.99
2022-11-17T19:37:58.737Z,81.24
2022-11-17T19:43:00.073Z,81.80
2022-11-17T19:48:01.254Z,81.85
2022-11-17T19:53:02.803Z,82.31
2022-11-17T19:58:03.945Z,82.86
2022-11-17T20:03:06.111Z,82.58
2022-11-17T20:08:07.108Z,82.62
2022-11-17T20:13:08.336Z,82.62
2022-11-17T20:18:09.526Z,82.45
2022-11-17T20:23:10.686Z,82.52
2022-11-17T20:28:11.921Z,82.42
2022-11-17T20:33:14.264Z,82.49
2022-11-17T20:38:15.870Z,82.48
2022-11-17T20:43:17.300Z,82.43
2022-11-17T20:48:18.531Z,82.36
2022-11-17T20:53:19.800Z,82.26
2022-11-17T20:58:21.230Z,82.46
2022-11-17T21:03:23.400Z,82.28
2022-11-17T21:08:27.542Z,82.19
2022-11-17T21:13:31.668Z,81.73
2022-11-17T21:18:35.025Z,81.63
2022-11-17T21:23:37.685Z,81.57
2022-11-17T21:28:40.272Z,81.31
2022-11-17T21:33:42.901Z,80.99
2022-11-17T21:38:46.092Z,81.03
2022-11-17T21:43:51.232Z,80.83
2022-11-17T21:48:54.725Z,80.92
2022-11-17T21:53:57.765Z,80.72
2022-11-17T21:59:01.755Z,80.49
2022-11-17T22:04:04.486Z,80.54
2022-11-17T22:09:07.289Z,80.38
2022-11-17T22:14:14.162Z,80.25
2022-11-17T22:19:17.025Z,79.87
2022-11-17T22:24:19.431Z,79.59
2022-11-17T22:29:22.657Z,79.61
2022-11-17T22:34:23.933Z,79.58
2022-11-17T22:39:25.673Z,79.52
2022-11-17T22:44:28.496Z,79.39
2022-11-17T22:49:30.340Z,79.18
2022-11-17T22:54:32.025Z,79.07
2022-11-17T22:59:33.125Z,79.37
2022-11-17T23:04:34.167Z,79.42
2022-11-17T23:09:35.322Z,79.26
2022-11-17T23:14:37.642Z,79.07
2022-11-17T23:19:38.778Z,78.62
2022-11-17T23:24:42.231Z,78.17
2022-11-17T23:29:43.396Z,78.13
2022-11-17T23:34:44.688Z,78.20
2022-11-17T23:39:45.800Z,78.22
2022-11-17T23:44:47.007Z,78.45
2022-11-17T23:49:48.145Z,78.57
2022-11-17T23:54:49.229Z,78.69
2022-11-17T23:59:51.021Z,78.71
